sensor_id;sensor_type;location;lat;lon;timestamp;P1;durP1;ratioP1;P2;durP2;ratioP2
43150;SDS011;28755;51.478;5.702;2023-08-30T00:00:13;11.98;;;8.38;;
43150;SDS011;28755;51.478;5.702;2023-08-30T00:02:39;11.77;;;8.27;;
43150;SDS011;28755;51.478;5.702;2023-08-30T00:05:04;12.73;;;8.40;;
43150;SDS011;28755;51.478;5.702;2023-08-30T00:07:30;14.90;;;8.60;;
43150;SDS011;28755;51.478;5.702;2023-08-30T00:09:56;13.10;;;8.32;;
43150;SDS011;28755;51.478;5.702;2023-08-30T00:12:23;13.55;;;9.05;;
43150;SDS011;28755;51.478;5.702;2023-08-30T00:14:49;12.63;;;8.68;;
43150;SDS011;28755;51.478;5.702;2023-08-30T00:17:15;13.90;;;9.88;;
43150;SDS011;28755;51.478;5.702;2023-08-30T00:19:41;15.30;;;9.35;;
43150;SDS011;28755;51.478;5.702;2023-08-30T00:22:06;13.93;;;9.38;;
43150;SDS011;28755;51.478;5.702;2023-08-30T00:24:32;12.57;;;9.05;;
43150;SDS011;28755;51.478;5.702;2023-08-30T00:26:58;11.70;;;9.20;;
43150;SDS011;28755;51.478;5.702;2023-08-30T00:29:25;12.60;;;8.98;;
43150;SDS011;28755;51.478;5.702;2023-08-30T00:31:50;12.93;;;9.50;;
43150;SDS011;28755;51.478;5.702;2023-08-30T00:34:16;13.35;;;9.05;;
43150;SDS011;28755;51.478;5.702;2023-08-30T00:36:42;11.65;;;8.90;;
43150;SDS011;28755;51.478;5.702;2023-08-30T00:39:07;13.85;;;8.57;;
43150;SDS011;28755;51.478;5.702;2023-08-30T00:41:33;11.77;;;8.90;;
43150;SDS011;28755;51.478;5.702;2023-08-30T00:43:59;14.80;;;9.15;;
43150;SDS011;28755;51.478;5.702;2023-08-30T00:46:25;14.77;;;9.10;;
43150;SDS011;28755;51.478;5.702;2023-08-30T00:48:51;11.90;;;9.05;;
43150;SDS011;28755;51.478;5.702;2023-08-30T00:51:16;12.82;;;8.55;;
43150;SDS011;28755;51.478;5.702;2023-08-30T00:53:42;11.85;;;9.35;;
43150;SDS011;28755;51.478;5.702;2023-08-30T00:56:09;10.85;;;8.98;;
43150;SDS011;28755;51.478;5.702;2023-08-30T00:58:35;12.93;;;9.27;;
43150;SDS011;28755;51.478;5.702;2023-08-30T01:01:00;13.65;;;8.82;;
43150;SDS011;28755;51.478;5.702;2023-08-30T01:03:26;15.95;;;8.88;;
43150;SDS011;28755;51.478;5.702;2023-08-30T01:05:52;16.77;;;9.43;;
43150;SDS011;28755;51.478;5.702;2023-08-30T01:08:17;13.73;;;9.98;;
43150;SDS011;28755;51.478;5.702;2023-08-30T01:10:49;11.38;;;8.95;;
43150;SDS011;28755;51.478;5.702;2023-08-30T01:13:22;13.13;;;9.20;;
43150;SDS011;28755;51.478;5.702;2023-08-30T01:15:51;12.85;;;9.35;;
43150;SDS011;28755;51.478;5.702;2023-08-30T01:18:19;11.95;;;8.85;;
43150;SDS011;28755;51.478;5.702;2023-08-30T01:20:47;10.32;;;8.88;;
43150;SDS011;28755;51.478;5.702;2023-08-30T01:23:17;13.55;;;9.52;;
43150;SDS011;28755;51.478;5.702;2023-08-30T01:28:35;13.65;;;8.85;;
43150;SDS011;28755;51.478;5.702;2023-08-30T01:31:02;12.32;;;8.90;;
43150;SDS011;28755;51.478;5.702;2023-08-30T01:33:31;12.98;;;9.13;;
43150;SDS011;28755;51.478;5.702;2023-08-30T01:35:58;12.85;;;9.40;;
43150;SDS011;28755;51.478;5.702;2023-08-30T01:38:26;15.32;;;9.23;;
43150;SDS011;28755;51.478;5.702;2023-08-30T01:40:54;14.48;;;9.95;;
43150;SDS011;28755;51.478;5.702;2023-08-30T01:43:22;13.10;;;9.50;;
43150;SDS011;28755;51.478;5.702;2023-08-30T01:45:49;14.15;;;9.52;;
43150;SDS011;28755;51.478;5.702;2023-08-30T01:48:16;13.23;;;9.68;;
43150;SDS011;28755;51.478;5.702;2023-08-30T01:50:43;12.75;;;9.15;;
43150;SDS011;28755;51.478;5.702;2023-08-30T01:53:13;14.07;;;8.88;;
43150;SDS011;28755;51.478;5.702;2023-08-30T01:55:39;12.93;;;9.65;;
43150;SDS011;28755;51.478;5.702;2023-08-30T01:58:05;12.20;;;9.13;;
43150;SDS011;28755;51.478;5.702;2023-08-30T02:00:31;13.18;;;9.27;;
43150;SDS011;28755;51.478;5.702;2023-08-30T02:02:57;13.55;;;9.57;;
43150;SDS011;28755;51.478;5.702;2023-08-30T02:05:23;13.82;;;9.23;;
43150;SDS011;28755;51.478;5.702;2023-08-30T02:07:57;13.27;;;8.73;;
43150;SDS011;28755;51.478;5.702;2023-08-30T02:10:29;12.75;;;9.30;;
43150;SDS011;28755;51.478;5.702;2023-08-30T02:12:59;11.88;;;9.30;;
43150;SDS011;28755;51.478;5.702;2023-08-30T02:15:29;12.40;;;9.90;;
43150;SDS011;28755;51.478;5.702;2023-08-30T02:17:56;13.35;;;9.75;;
43150;SDS011;28755;51.478;5.702;2023-08-30T02:20:22;13.90;;;10.10;;
43150;SDS011;28755;51.478;5.702;2023-08-30T02:22:48;14.90;;;10.77;;
43150;SDS011;28755;51.478;5.702;2023-08-30T02:25:14;14.13;;;10.07;;
43150;SDS011;28755;51.478;5.702;2023-08-30T02:27:39;18.65;;;11.10;;
43150;SDS011;28755;51.478;5.702;2023-08-30T02:30:05;13.93;;;10.55;;
43150;SDS011;28755;51.478;5.702;2023-08-30T02:32:32;16.50;;;10.88;;
43150;SDS011;28755;51.478;5.702;2023-08-30T02:34:57;14.55;;;11.45;;
43150;SDS011;28755;51.478;5.702;2023-08-30T02:37:23;17.15;;;11.70;;
43150;SDS011;28755;51.478;5.702;2023-08-30T02:39:49;15.82;;;12.07;;
43150;SDS011;28755;51.478;5.702;2023-08-30T02:42:15;20.48;;;11.75;;
43150;SDS011;28755;51.478;5.702;2023-08-30T02:44:40;18.00;;;11.82;;
43150;SDS011;28755;51.478;5.702;2023-08-30T02:47:06;17.90;;;12.68;;
43150;SDS011;28755;51.478;5.702;2023-08-30T02:49:31;19.85;;;12.98;;
43150;SDS011;28755;51.478;5.702;2023-08-30T02:51:57;17.30;;;12.02;;
43150;SDS011;28755;51.478;5.702;2023-08-30T02:54:23;17.63;;;11.82;;
43150;SDS011;28755;51.478;5.702;2023-08-30T02:56:48;16.17;;;11.98;;
43150;SDS011;28755;51.478;5.702;2023-08-30T02:59:14;14.07;;;11.65;;
43150;SDS011;28755;51.478;5.702;2023-08-30T03:01:40;17.23;;;12.45;;
43150;SDS011;28755;51.478;5.702;2023-08-30T03:04:06;17.02;;;12.65;;
43150;SDS011;28755;51.478;5.702;2023-08-30T03:06:32;21.13;;;12.52;;
43150;SDS011;28755;51.478;5.702;2023-08-30T03:08:58;17.58;;;13.05;;
43150;SDS011;28755;51.478;5.702;2023-08-30T03:11:24;18.27;;;12.60;;
43150;SDS011;28755;51.478;5.702;2023-08-30T03:13:49;17.88;;;12.30;;
43150;SDS011;28755;51.478;5.702;2023-08-30T03:16:16;20.45;;;12.85;;
43150;SDS011;28755;51.478;5.702;2023-08-30T03:18:42;19.90;;;12.13;;
43150;SDS011;28755;51.478;5.702;2023-08-30T03:21:08;20.40;;;12.23;;
43150;SDS011;28755;51.478;5.702;2023-08-30T03:23:35;22.63;;;12.55;;
43150;SDS011;28755;51.478;5.702;2023-08-30T03:26:11;15.63;;;11.95;;
43150;SDS011;28755;51.478;5.702;2023-08-30T03:28:38;15.40;;;12.43;;
43150;SDS011;28755;51.478;5.702;2023-08-30T03:31:11;20.38;;;12.00;;
43150;SDS011;28755;51.478;5.702;2023-08-30T03:33:42;16.98;;;13.15;;
43150;SDS011;28755;51.478;5.702;2023-08-30T03:36:09;17.48;;;12.40;;
43150;SDS011;28755;51.478;5.702;2023-08-30T03:38:36;18.83;;;12.80;;
43150;SDS011;28755;51.478;5.702;2023-08-30T03:41:02;20.75;;;13.77;;
43150;SDS011;28755;51.478;5.702;2023-08-30T03:43:28;19.70;;;13.38;;
43150;SDS011;28755;51.478;5.702;2023-08-30T03:45:55;17.05;;;12.68;;
43150;SDS011;28755;51.478;5.702;2023-08-30T03:48:20;19.75;;;13.98;;
43150;SDS011;28755;51.478;5.702;2023-08-30T03:50:46;19.98;;;14.40;;
43150;SDS011;28755;51.478;5.702;2023-08-30T03:53:11;20.92;;;15.35;;
43150;SDS011;28755;51.478;5.702;2023-08-30T03:55:37;24.92;;;15.07;;
43150;SDS011;28755;51.478;5.702;2023-08-30T03:58:02;21.40;;;14.82;;
43150;SDS011;28755;51.478;5.702;2023-08-30T04:00:28;26.73;;;16.13;;
43150;SDS011;28755;51.478;5.702;2023-08-30T04:02:54;22.88;;;15.75;;
43150;SDS011;28755;51.478;5.702;2023-08-30T04:05:19;20.95;;;16.25;;
43150;SDS011;28755;51.478;5.702;2023-08-30T04:07:45;25.17;;;16.95;;
43150;SDS011;28755;51.478;5.702;2023-08-30T04:10:10;21.63;;;16.80;;
43150;SDS011;28755;51.478;5.702;2023-08-30T04:12:36;22.98;;;17.23;;
43150;SDS011;28755;51.478;5.702;2023-08-30T04:15:01;26.10;;;18.15;;
43150;SDS011;28755;51.478;5.702;2023-08-30T04:17:28;22.40;;;16.92;;
43150;SDS011;28755;51.478;5.702;2023-08-30T04:19:53;24.40;;;17.48;;
43150;SDS011;28755;51.478;5.702;2023-08-30T04:22:19;29.27;;;17.98;;
43150;SDS011;28755;51.478;5.702;2023-08-30T04:24:45;27.50;;;18.95;;
43150;SDS011;28755;51.478;5.702;2023-08-30T04:27:11;24.70;;;18.73;;
43150;SDS011;28755;51.478;5.702;2023-08-30T04:29:37;24.50;;;19.38;;
43150;SDS011;28755;51.478;5.702;2023-08-30T04:32:03;25.92;;;18.02;;
43150;SDS011;28755;51.478;5.702;2023-08-30T04:34:29;20.63;;;17.27;;
43150;SDS011;28755;51.478;5.702;2023-08-30T04:36:56;26.95;;;17.48;;
43150;SDS011;28755;51.478;5.702;2023-08-30T04:39:21;29.05;;;17.67;;
43150;SDS011;28755;51.478;5.702;2023-08-30T04:41:47;21.98;;;16.83;;
43150;SDS011;28755;51.478;5.702;2023-08-30T04:44:13;27.38;;;18.23;;
43150;SDS011;28755;51.478;5.702;2023-08-30T04:46:38;23.35;;;17.52;;
43150;SDS011;28755;51.478;5.702;2023-08-30T04:49:04;28.27;;;17.52;;
43150;SDS011;28755;51.478;5.702;2023-08-30T04:51:30;22.98;;;17.77;;
43150;SDS011;28755;51.478;5.702;2023-08-30T04:53:55;23.73;;;16.63;;
43150;SDS011;28755;51.478;5.702;2023-08-30T04:56:21;23.65;;;17.13;;
43150;SDS011;28755;51.478;5.702;2023-08-30T04:58:46;23.33;;;17.33;;
43150;SDS011;28755;51.478;5.702;2023-08-30T05:01:12;23.95;;;17.02;;
43150;SDS011;28755;51.478;5.702;2023-08-30T05:03:38;25.70;;;17.25;;
43150;SDS011;28755;51.478;5.702;2023-08-30T05:06:04;23.80;;;16.95;;
43150;SDS011;28755;51.478;5.702;2023-08-30T05:08:31;22.35;;;16.95;;
43150;SDS011;28755;51.478;5.702;2023-08-30T05:10:57;28.15;;;16.90;;
43150;SDS011;28755;51.478;5.702;2023-08-30T05:13:22;19.40;;;16.33;;
43150;SDS011;28755;51.478;5.702;2023-08-30T05:15:48;24.77;;;16.63;;
43150;SDS011;28755;51.478;5.702;2023-08-30T05:18:13;23.00;;;15.90;;
43150;SDS011;28755;51.478;5.702;2023-08-30T05:20:39;24.10;;;17.98;;
43150;SDS011;28755;51.478;5.702;2023-08-30T05:23:04;22.58;;;15.77;;
43150;SDS011;28755;51.478;5.702;2023-08-30T05:25:30;24.20;;;15.85;;
43150;SDS011;28755;51.478;5.702;2023-08-30T05:27:55;22.65;;;15.23;;
43150;SDS011;28755;51.478;5.702;2023-08-30T05:30:21;20.77;;;15.75;;
43150;SDS011;28755;51.478;5.702;2023-08-30T05:32:47;20.73;;;15.43;;
43150;SDS011;28755;51.478;5.702;2023-08-30T05:35:12;24.05;;;16.08;;
43150;SDS011;28755;51.478;5.702;2023-08-30T05:37:38;22.58;;;15.63;;
43150;SDS011;28755;51.478;5.702;2023-08-30T05:40:04;22.08;;;15.38;;
43150;SDS011;28755;51.478;5.702;2023-08-30T05:42:30;20.98;;;16.42;;
43150;SDS011;28755;51.478;5.702;2023-08-30T05:44:55;23.17;;;15.75;;
43150;SDS011;28755;51.478;5.702;2023-08-30T05:47:21;19.50;;;15.70;;
43150;SDS011;28755;51.478;5.702;2023-08-30T05:49:47;25.20;;;16.35;;
43150;SDS011;28755;51.478;5.702;2023-08-30T05:54:41;29.05;;;16.95;;
43150;SDS011;28755;51.478;5.702;2023-08-30T05:57:07;21.77;;;16.13;;
43150;SDS011;28755;51.478;5.702;2023-08-30T05:59:33;20.10;;;16.33;;
43150;SDS011;28755;51.478;5.702;2023-08-30T06:02:00;26.15;;;16.60;;
43150;SDS011;28755;51.478;5.702;2023-08-30T06:04:25;23.90;;;17.80;;
43150;SDS011;28755;51.478;5.702;2023-08-30T06:06:51;22.85;;;16.98;;
43150;SDS011;28755;51.478;5.702;2023-08-30T06:09:16;23.52;;;17.20;;
43150;SDS011;28755;51.478;5.702;2023-08-30T06:11:42;25.08;;;17.77;;
43150;SDS011;28755;51.478;5.702;2023-08-30T06:14:08;23.08;;;16.50;;
43150;SDS011;28755;51.478;5.702;2023-08-30T06:16:33;25.60;;;18.20;;
43150;SDS011;28755;51.478;5.702;2023-08-30T06:18:59;21.75;;;16.23;;
43150;SDS011;28755;51.478;5.702;2023-08-30T06:21:25;27.58;;;17.17;;
43150;SDS011;28755;51.478;5.702;2023-08-30T06:23:51;27.88;;;17.45;;
43150;SDS011;28755;51.478;5.702;2023-08-30T06:26:17;24.88;;;17.83;;
43150;SDS011;28755;51.478;5.702;2023-08-30T06:28:43;22.70;;;17.27;;
43150;SDS011;28755;51.478;5.702;2023-08-30T06:31:09;30.75;;;17.45;;
43150;SDS011;28755;51.478;5.702;2023-08-30T06:33:35;27.23;;;15.68;;
43150;SDS011;28755;51.478;5.702;2023-08-30T06:36:01;23.85;;;16.30;;
43150;SDS011;28755;51.478;5.702;2023-08-30T06:38:27;22.60;;;16.45;;
43150;SDS011;28755;51.478;5.702;2023-08-30T06:40:53;21.65;;;15.50;;
43150;SDS011;28755;51.478;5.702;2023-08-30T06:43:18;22.17;;;15.32;;
43150;SDS011;28755;51.478;5.702;2023-08-30T06:45:44;18.90;;;15.13;;
43150;SDS011;28755;51.478;5.702;2023-08-30T06:48:11;22.58;;;15.23;;
43150;SDS011;28755;51.478;5.702;2023-08-30T06:50:38;23.42;;;14.50;;
43150;SDS011;28755;51.478;5.702;2023-08-30T06:53:03;21.88;;;14.45;;
43150;SDS011;28755;51.478;5.702;2023-08-30T06:55:29;19.75;;;13.88;;
43150;SDS011;28755;51.478;5.702;2023-08-30T06:57:54;20.48;;;13.15;;
43150;SDS011;28755;51.478;5.702;2023-08-30T07:00:20;20.40;;;13.70;;
43150;SDS011;28755;51.478;5.702;2023-08-30T07:02:46;23.48;;;13.13;;
43150;SDS011;28755;51.478;5.702;2023-08-30T07:05:12;20.42;;;13.20;;
43150;SDS011;28755;51.478;5.702;2023-08-30T07:07:38;21.92;;;13.82;;
43150;SDS011;28755;51.478;5.702;2023-08-30T07:10:04;18.27;;;13.52;;
43150;SDS011;28755;51.478;5.702;2023-08-30T07:12:30;18.52;;;13.00;;
43150;SDS011;28755;51.478;5.702;2023-08-30T07:14:56;20.30;;;13.75;;
43150;SDS011;28755;51.478;5.702;2023-08-30T07:17:21;18.25;;;13.77;;
43150;SDS011;28755;51.478;5.702;2023-08-30T07:19:47;20.48;;;12.65;;
43150;SDS011;28755;51.478;5.702;2023-08-30T07:22:13;18.38;;;11.88;;
43150;SDS011;28755;51.478;5.702;2023-08-30T07:24:41;18.95;;;12.93;;
43150;SDS011;28755;51.478;5.702;2023-08-30T07:27:08;20.42;;;13.48;;
43150;SDS011;28755;51.478;5.702;2023-08-30T07:29:33;20.17;;;13.05;;
43150;SDS011;28755;51.478;5.702;2023-08-30T07:31:59;19.08;;;13.77;;
43150;SDS011;28755;51.478;5.702;2023-08-30T07:34:24;19.10;;;13.85;;
43150;SDS011;28755;51.478;5.702;2023-08-30T07:36:50;21.73;;;14.43;;
43150;SDS011;28755;51.478;5.702;2023-08-30T07:39:19;18.98;;;13.68;;
43150;SDS011;28755;51.478;5.702;2023-08-30T07:41:44;20.70;;;13.93;;
43150;SDS011;28755;51.478;5.702;2023-08-30T07:44:10;19.35;;;13.27;;
43150;SDS011;28755;51.478;5.702;2023-08-30T07:46:35;18.77;;;13.77;;
43150;SDS011;28755;51.478;5.702;2023-08-30T07:49:01;16.20;;;12.50;;
43150;SDS011;28755;51.478;5.702;2023-08-30T07:51:27;18.63;;;13.02;;
43150;SDS011;28755;51.478;5.702;2023-08-30T07:53:53;15.07;;;11.55;;
43150;SDS011;28755;51.478;5.702;2023-08-30T07:56:18;13.40;;;10.85;;
43150;SDS011;28755;51.478;5.702;2023-08-30T07:58:44;18.45;;;11.27;;
43150;SDS011;28755;51.478;5.702;2023-08-30T08:01:09;16.42;;;11.15;;
43150;SDS011;28755;51.478;5.702;2023-08-30T08:03:35;14.20;;;9.90;;
43150;SDS011;28755;51.478;5.702;2023-08-30T08:06:00;13.10;;;9.05;;
43150;SDS011;28755;51.478;5.702;2023-08-30T08:08:26;11.95;;;8.85;;
43150;SDS011;28755;51.478;5.702;2023-08-30T08:10:52;12.93;;;9.23;;
43150;SDS011;28755;51.478;5.702;2023-08-30T08:13:17;12.90;;;8.82;;
43150;SDS011;28755;51.478;5.702;2023-08-30T08:15:43;9.55;;;7.43;;
43150;SDS011;28755;51.478;5.702;2023-08-30T08:18:11;10.13;;;7.82;;
43150;SDS011;28755;51.478;5.702;2023-08-30T08:20:37;10.77;;;7.63;;
43150;SDS011;28755;51.478;5.702;2023-08-30T08:23:04;11.45;;;7.32;;
43150;SDS011;28755;51.478;5.702;2023-08-30T08:25:29;13.95;;;6.93;;
43150;SDS011;28755;51.478;5.702;2023-08-30T08:27:55;8.07;;;6.30;;
43150;SDS011;28755;51.478;5.702;2023-08-30T08:30:21;10.88;;;7.10;;
43150;SDS011;28755;51.478;5.702;2023-08-30T08:32:47;9.65;;;6.60;;
43150;SDS011;28755;51.478;5.702;2023-08-30T08:35:13;9.25;;;6.50;;
43150;SDS011;28755;51.478;5.702;2023-08-30T08:37:39;8.60;;;6.45;;
43150;SDS011;28755;51.478;5.702;2023-08-30T08:40:05;8.85;;;6.40;;
43150;SDS011;28755;51.478;5.702;2023-08-30T08:42:33;8.15;;;6.55;;
43150;SDS011;28755;51.478;5.702;2023-08-30T08:45:02;10.38;;;6.80;;
43150;SDS011;28755;51.478;5.702;2023-08-30T08:47:29;8.27;;;6.18;;
43150;SDS011;28755;51.478;5.702;2023-08-30T08:49:56;8.52;;;6.50;;
43150;SDS011;28755;51.478;5.702;2023-08-30T08:52:25;11.20;;;6.82;;
43150;SDS011;28755;51.478;5.702;2023-08-30T08:54:51;13.60;;;6.70;;
43150;SDS011;28755;51.478;5.702;2023-08-30T08:57:17;12.15;;;7.20;;
43150;SDS011;28755;51.478;5.702;2023-08-30T08:59:44;9.50;;;6.10;;
43150;SDS011;28755;51.478;5.702;2023-08-30T09:02:12;9.27;;;6.28;;
43150;SDS011;28755;51.478;5.702;2023-08-30T09:04:39;10.20;;;6.57;;
43150;SDS011;28755;51.478;5.702;2023-08-30T09:07:05;9.50;;;6.43;;
43150;SDS011;28755;51.478;5.702;2023-08-30T09:09:32;9.73;;;6.47;;
43150;SDS011;28755;51.478;5.702;2023-08-30T09:11:58;10.05;;;6.10;;
43150;SDS011;28755;51.478;5.702;2023-08-30T09:14:23;8.48;;;6.25;;
43150;SDS011;28755;51.478;5.702;2023-08-30T09:16:56;9.75;;;6.25;;
43150;SDS011;28755;51.478;5.702;2023-08-30T09:19:22;13.57;;;7.20;;
43150;SDS011;28755;51.478;5.702;2023-08-30T09:22:06;9.98;;;6.60;;
43150;SDS011;28755;51.478;5.702;2023-08-30T09:24:39;11.55;;;7.30;;
43150;SDS011;28755;51.478;5.702;2023-08-30T09:27:05;9.43;;;6.95;;
43150;SDS011;28755;51.478;5.702;2023-08-30T09:29:31;10.35;;;7.03;;
43150;SDS011;28755;51.478;5.702;2023-08-30T09:31:57;11.70;;;7.25;;
43150;SDS011;28755;51.478;5.702;2023-08-30T09:34:23;10.85;;;6.70;;
43150;SDS011;28755;51.478;5.702;2023-08-30T09:36:50;11.50;;;6.50;;
43150;SDS011;28755;51.478;5.702;2023-08-30T09:39:16;8.80;;;6.07;;
43150;SDS011;28755;51.478;5.702;2023-08-30T09:41:46;8.52;;;5.88;;
43150;SDS011;28755;51.478;5.702;2023-08-30T09:44:14;8.52;;;6.32;;
43150;SDS011;28755;51.478;5.702;2023-08-30T09:46:41;10.65;;;6.30;;
43150;SDS011;28755;51.478;5.702;2023-08-30T09:49:26;7.22;;;5.97;;
43150;SDS011;28755;51.478;5.702;2023-08-30T09:51:53;9.98;;;6.20;;
43150;SDS011;28755;51.478;5.702;2023-08-30T09:54:23;8.07;;;5.53;;
43150;SDS011;28755;51.478;5.702;2023-08-30T09:56:49;9.40;;;6.07;;
43150;SDS011;28755;51.478;5.702;2023-08-30T09:59:17;7.72;;;6.47;;
43150;SDS011;28755;51.478;5.702;2023-08-30T10:01:44;10.63;;;6.95;;
43150;SDS011;28755;51.478;5.702;2023-08-30T10:04:13;11.77;;;7.22;;
43150;SDS011;28755;51.478;5.702;2023-08-30T10:06:39;9.93;;;6.18;;
43150;SDS011;28755;51.478;5.702;2023-08-30T10:09:06;9.15;;;5.72;;
43150;SDS011;28755;51.478;5.702;2023-08-30T10:11:36;9.55;;;5.43;;
43150;SDS011;28755;51.478;5.702;2023-08-30T10:14:03;6.30;;;5.53;;
43150;SDS011;28755;51.478;5.702;2023-08-30T10:16:45;7.38;;;5.90;;
43150;SDS011;28755;51.478;5.702;2023-08-30T10:19:14;6.95;;;4.20;;
43150;SDS011;28755;51.478;5.702;2023-08-30T10:21:53;4.82;;;3.40;;
43150;SDS011;28755;51.478;5.702;2023-08-30T10:24:27;6.18;;;3.50;;
43150;SDS011;28755;51.478;5.702;2023-08-30T10:26:54;3.92;;;3.53;;
43150;SDS011;28755;51.478;5.702;2023-08-30T10:29:21;3.45;;;3.10;;
43150;SDS011;28755;51.478;5.702;2023-08-30T10:31:48;4.22;;;3.47;;
43150;SDS011;28755;51.478;5.702;2023-08-30T10:34:15;4.75;;;3.83;;
43150;SDS011;28755;51.478;5.702;2023-08-30T10:36:42;5.75;;;4.50;;
43150;SDS011;28755;51.478;5.702;2023-08-30T10:39:12;6.30;;;4.43;;
43150;SDS011;28755;51.478;5.702;2023-08-30T10:41:53;5.50;;;3.72;;
43150;SDS011;28755;51.478;5.702;2023-08-30T10:44:20;5.32;;;3.72;;
43150;SDS011;28755;51.478;5.702;2023-08-30T10:46:51;5.43;;;4.15;;
43150;SDS011;28755;51.478;5.702;2023-08-30T10:49:20;4.72;;;3.83;;
43150;SDS011;28755;51.478;5.702;2023-08-30T10:51:54;6.85;;;4.20;;
43150;SDS011;28755;51.478;5.702;2023-08-30T10:54:24;5.82;;;4.22;;
43150;SDS011;28755;51.478;5.702;2023-08-30T10:56:56;5.32;;;4.30;;
43150;SDS011;28755;51.478;5.702;2023-08-30T10:59:25;6.15;;;3.97;;
43150;SDS011;28755;51.478;5.702;2023-08-30T11:01:52;4.68;;;3.90;;
43150;SDS011;28755;51.478;5.702;2023-08-30T11:04:18;7.43;;;4.25;;
43150;SDS011;28755;51.478;5.702;2023-08-30T11:06:46;5.75;;;3.80;;
43150;SDS011;28755;51.478;5.702;2023-08-30T11:09:16;4.15;;;3.55;;
43150;SDS011;28755;51.478;5.702;2023-08-30T11:11:46;4.97;;;3.70;;
43150;SDS011;28755;51.478;5.702;2023-08-30T11:14:13;4.47;;;3.97;;
43150;SDS011;28755;51.478;5.702;2023-08-30T11:16:39;4.93;;;3.45;;
43150;SDS011;28755;51.478;5.702;2023-08-30T11:19:06;3.50;;;3.20;;
43150;SDS011;28755;51.478;5.702;2023-08-30T11:21:42;4.40;;;3.42;;
43150;SDS011;28755;51.478;5.702;2023-08-30T11:24:10;5.40;;;3.58;;
43150;SDS011;28755;51.478;5.702;2023-08-30T11:26:37;5.57;;;3.38;;
43150;SDS011;28755;51.478;5.702;2023-08-30T11:29:06;5.68;;;4.18;;
43150;SDS011;28755;51.478;5.702;2023-08-30T11:33:58;6.28;;;4.05;;
43150;SDS011;28755;51.478;5.702;2023-08-30T11:36:28;4.47;;;3.90;;
43150;SDS011;28755;51.478;5.702;2023-08-30T11:38:55;5.13;;;3.63;;
43150;SDS011;28755;51.478;5.702;2023-08-30T11:41:21;4.32;;;3.38;;
43150;SDS011;28755;51.478;5.702;2023-08-30T11:43:47;4.43;;;3.47;;
43150;SDS011;28755;51.478;5.702;2023-08-30T11:46:13;4.95;;;3.70;;
43150;SDS011;28755;51.478;5.702;2023-08-30T11:48:39;5.03;;;3.60;;
43150;SDS011;28755;51.478;5.702;2023-08-30T11:51:06;6.00;;;4.30;;
43150;SDS011;28755;51.478;5.702;2023-08-30T11:53:32;5.65;;;4.30;;
43150;SDS011;28755;51.478;5.702;2023-08-30T11:55:59;4.43;;;3.58;;
43150;SDS011;28755;51.478;5.702;2023-08-30T11:58:25;5.93;;;3.97;;
43150;SDS011;28755;51.478;5.702;2023-08-30T12:00:51;6.72;;;3.95;;
43150;SDS011;28755;51.478;5.702;2023-08-30T12:03:19;5.55;;;3.67;;
43150;SDS011;28755;51.478;5.702;2023-08-30T12:05:45;6.85;;;4.22;;
43150;SDS011;28755;51.478;5.702;2023-08-30T12:08:23;7.75;;;4.50;;
43150;SDS011;28755;51.478;5.702;2023-08-30T12:10:50;6.22;;;5.00;;
43150;SDS011;28755;51.478;5.702;2023-08-30T12:13:23;5.88;;;4.70;;
43150;SDS011;28755;51.478;5.702;2023-08-30T12:15:54;7.18;;;4.45;;
43150;SDS011;28755;51.478;5.702;2023-08-30T12:18:27;5.03;;;4.07;;
43150;SDS011;28755;51.478;5.702;2023-08-30T12:20:54;8.30;;;4.80;;
43150;SDS011;28755;51.478;5.702;2023-08-30T12:23:21;5.93;;;3.88;;
43150;SDS011;28755;51.478;5.702;2023-08-30T12:28:26;6.47;;;3.63;;
43150;SDS011;28755;51.478;5.702;2023-08-30T12:30:53;6.70;;;4.25;;
43150;SDS011;28755;51.478;5.702;2023-08-30T12:33:19;7.80;;;3.53;;
43150;SDS011;28755;51.478;5.702;2023-08-30T12:35:45;5.93;;;3.20;;
43150;SDS011;28755;51.478;5.702;2023-08-30T12:38:11;10.30;;;3.10;;
43150;SDS011;28755;51.478;5.702;2023-08-30T12:40:43;8.02;;;2.55;;
43150;SDS011;28755;51.478;5.702;2023-08-30T12:43:10;7.10;;;2.40;;
43150;SDS011;28755;51.478;5.702;2023-08-30T12:45:36;14.70;;;2.60;;
43150;SDS011;28755;51.478;5.702;2023-08-30T12:48:02;6.88;;;1.85;;
43150;SDS011;28755;51.478;5.702;2023-08-30T12:50:28;6.55;;;2.22;;
43150;SDS011;28755;51.478;5.702;2023-08-30T12:52:53;7.70;;;2.28;;
43150;SDS011;28755;51.478;5.702;2023-08-30T12:55:19;9.90;;;2.38;;
43150;SDS011;28755;51.478;5.702;2023-08-30T12:57:44;10.82;;;2.58;;
43150;SDS011;28755;51.478;5.702;2023-08-30T13:00:11;10.65;;;2.72;;
43150;SDS011;28755;51.478;5.702;2023-08-30T13:02:38;6.82;;;2.55;;
43150;SDS011;28755;51.478;5.702;2023-08-30T13:05:04;11.23;;;3.00;;
43150;SDS011;28755;51.478;5.702;2023-08-30T13:07:30;11.15;;;2.80;;
43150;SDS011;28755;51.478;5.702;2023-08-30T13:09:55;11.32;;;3.20;;
43150;SDS011;28755;51.478;5.702;2023-08-30T13:12:21;9.50;;;2.83;;
43150;SDS011;28755;51.478;5.702;2023-08-30T13:14:47;9.25;;;3.13;;
43150;SDS011;28755;51.478;5.702;2023-08-30T13:17:12;15.07;;;3.17;;
43150;SDS011;28755;51.478;5.702;2023-08-30T13:19:38;6.85;;;2.40;;
43150;SDS011;28755;51.478;5.702;2023-08-30T13:22:03;10.45;;;2.70;;
43150;SDS011;28755;51.478;5.702;2023-08-30T13:24:29;7.22;;;2.17;;
43150;SDS011;28755;51.478;5.702;2023-08-30T13:26:57;8.13;;;2.22;;
43150;SDS011;28755;51.478;5.702;2023-08-30T13:29:23;9.73;;;2.38;;
43150;SDS011;28755;51.478;5.702;2023-08-30T13:31:48;7.70;;;2.00;;
43150;SDS011;28755;51.478;5.702;2023-08-30T13:34:14;6.07;;;2.00;;
43150;SDS011;28755;51.478;5.702;2023-08-30T13:36:39;8.10;;;2.00;;
43150;SDS011;28755;51.478;5.702;2023-08-30T13:39:05;10.35;;;2.00;;
43150;SDS011;28755;51.478;5.702;2023-08-30T13:41:30;12.50;;;2.30;;
43150;SDS011;28755;51.478;5.702;2023-08-30T13:43:56;7.18;;;2.45;;
43150;SDS011;28755;51.478;5.702;2023-08-30T13:46:22;10.32;;;2.60;;
43150;SDS011;28755;51.478;5.702;2023-08-30T13:48:47;6.95;;;2.20;;
43150;SDS011;28755;51.478;5.702;2023-08-30T13:51:13;10.43;;;2.40;;
43150;SDS011;28755;51.478;5.702;2023-08-30T13:53:39;9.23;;;2.35;;
43150;SDS011;28755;51.478;5.702;2023-08-30T13:56:04;9.73;;;2.40;;
43150;SDS011;28755;51.478;5.702;2023-08-30T13:58:30;7.90;;;2.10;;
43150;SDS011;28755;51.478;5.702;2023-08-30T14:00:55;6.75;;;2.05;;
43150;SDS011;28755;51.478;5.702;2023-08-30T14:03:21;16.02;;;2.38;;
43150;SDS011;28755;51.478;5.702;2023-08-30T14:05:47;9.02;;;2.08;;
43150;SDS011;28755;51.478;5.702;2023-08-30T14:08:12;7.28;;;2.00;;
43150;SDS011;28755;51.478;5.702;2023-08-30T14:10:38;10.02;;;1.95;;
43150;SDS011;28755;51.478;5.702;2023-08-30T14:13:03;8.93;;;2.60;;
43150;SDS011;28755;51.478;5.702;2023-08-30T14:15:30;9.63;;;1.70;;
43150;SDS011;28755;51.478;5.702;2023-08-30T14:17:55;10.45;;;2.30;;
43150;SDS011;28755;51.478;5.702;2023-08-30T14:20:21;7.28;;;2.00;;
43150;SDS011;28755;51.478;5.702;2023-08-30T14:22:47;10.07;;;2.10;;
43150;SDS011;28755;51.478;5.702;2023-08-30T14:25:12;5.75;;;1.67;;
43150;SDS011;28755;51.478;5.702;2023-08-30T14:27:38;6.40;;;1.80;;
43150;SDS011;28755;51.478;5.702;2023-08-30T14:30:05;8.20;;;1.70;;
43150;SDS011;28755;51.478;5.702;2023-08-30T14:32:31;6.47;;;1.85;;
43150;SDS011;28755;51.478;5.702;2023-08-30T14:34:57;8.15;;;1.50;;
43150;SDS011;28755;51.478;5.702;2023-08-30T14:37:22;9.23;;;1.70;;
43150;SDS011;28755;51.478;5.702;2023-08-30T14:39:48;6.80;;;1.40;;